createdAt,value
2022-11-28T00:00:06.433Z,45.57
2022-11-28T00:02:33.087Z,45.39
2022-11-28T00:04:59.683Z,45.41
2022-11-28T00:07:26.521Z,45.29
2022-11-28T00:09:53.167Z,45.38
2022-11-28T00:12:19.713Z,45.34
2022-11-28T00:14:46.465Z,45.57
2022-11-28T00:17:13.015Z,45.58
2022-11-28T00:19:39.571Z,45.53
2022-11-28T00:22:06.249Z,45.56
2022-11-28T00:24:32.803Z,45.51
2022-11-28T00:26:59.485Z,45.65
2022-11-28T00:29:26.202Z,45.48
2022-11-28T00:31:52.775Z,45.54
2022-11-28T00:34:19.471Z,45.42
2022-11-28T00:36:46.992Z,45.54
2022-11-28T00:39:14.694Z,45.31
2022-11-28T00:41:41.282Z,45.46
2022-11-28T00:44:07.974Z,45.35
2022-11-28T00:46:34.559Z,45.54
2022-11-28T00:49:01.229Z,45.53
2022-11-28T00:51:31.519Z,45.27
2022-11-28T00:53:59.511Z,45.42
2022-11-28T00:56:29.784Z,45.48
2022-11-28T00:58:56.868Z,45.44
2022-11-28T01:01:26.498Z,45.44
2022-11-28T01:03:54.374Z,45.42
2022-11-28T01:06:29.139Z,45.48
2022-11-28T01:08:58.242Z,45.40
2022-11-28T01:11:25.256Z,45.36
2022-11-28T01:13:55.988Z,45.26
2022-11-28T01:16:23.066Z,45.56
2022-11-28T01:18:49.967Z,45.34
2022-11-28T01:21:16.784Z,45.44
2022-11-28T01:23:43.379Z,45.51
2022-11-28T01:26:12.559Z,45.46
2022-11-28T01:28:39.197Z,45.60
2022-11-28T01:31:07.619Z,45.51
2022-11-28T01:33:34.175Z,45.52
2022-11-28T01:36:01.050Z,45.47
2022-11-28T01:38:27.954Z,45.60
2022-11-28T01:40:55.727Z,45.54
2022-11-28T01:43:23.459Z,45.58
2022-11-28T01:45:50.008Z,45.48
2022-11-28T01:48:22.866Z,45.41
2022-11-28T01:50:51.602Z,45.44
2022-11-28T01:53:18.364Z,45.36
2022-11-28T01:56:02.623Z,45.60
2022-11-28T01:58:30.623Z,45.53
2022-11-28T02:00:57.260Z,45.47
2022-11-28T02:03:28.049Z,45.35
2022-11-28T02:05:54.870Z,45.49
2022-11-28T02:08:21.426Z,45.42
2022-11-28T02:11:04.033Z,45.36
2022-11-28T02:13:49.392Z,45.46
2022-11-28T02:16:18.968Z,45.43
2022-11-28T02:18:57.437Z,45.39
2022-11-28T02:21:27.734Z,45.30
2022-11-28T02:24:15.912Z,45.32
2022-11-28T02:27:04.392Z,45.46
2022-11-28T02:30:01.272Z,45.50
2022-11-28T02:32:57.704Z,45.50
2022-11-28T02:35:47.179Z,45.45
2022-11-28T02:38:27.470Z,45.53
2022-11-28T02:41:07.303Z,45.68
2022-11-28T02:43:40.881Z,45.75
2022-11-28T02:46:26.277Z,45.74
2022-11-28T02:49:03.769Z,45.53
2022-11-28T02:51:42.485Z,45.60
2022-11-28T02:54:11.416Z,45.50
2022-11-28T02:56:38.302Z,45.58
2022-11-28T02:59:05.372Z,45.49
2022-11-28T03:01:35.226Z,45.44
2022-11-28T03:04:26.813Z,45.48
2022-11-28T03:07:02.043Z,45.49
2022-11-28T03:09:51.290Z,45.49
2022-11-28T03:12:59.130Z,45.37
2022-11-28T03:15:32.280Z,45.48
2022-11-28T03:18:10.495Z,45.36
2022-11-28T03:20:44.741Z,45.28
2022-11-28T03:23:13.922Z,45.23
2022-11-28T03:25:50.307Z,45.34
2022-11-28T03:28:26.716Z,45.38
2022-11-28T03:31:03.556Z,45.44
2022-11-28T03:33:33.654Z,45.43
2022-11-28T03:36:08.866Z,45.64
2022-11-28T03:38:40.323Z,45.64
2022-11-28T03:41:15.843Z,45.52
2022-11-28T03:43:46.991Z,45.63
2022-11-28T03:46:16.917Z,45.62
2022-11-28T03:48:46.994Z,45.61
2022-11-28T03:51:37.298Z,45.53
2022-11-28T03:54:25.285Z,45.55
2022-11-28T03:57:15.192Z,45.56
2022-11-28T03:59:48.055Z,45.39
2022-11-28T04:02:40.229Z,45.41
2022-11-28T04:05:20.402Z,45.60
2022-11-28T04:07:58.477Z,45.57
2022-11-28T04:10:38.584Z,45.56
2022-11-28T04:13:14.769Z,45.44
2022-11-28T04:15:58.819Z,45.54
2022-11-28T04:18:31.987Z,45.39
2022-11-28T04:21:12.163Z,45.40
2022-11-28T04:23:40.883Z,45.44
2022-11-28T04:26:37.660Z,45.47
2022-11-28T04:29:09.419Z,45.39
2022-11-28T04:31:36.960Z,45.49
2022-11-28T04:34:06.623Z,45.43
2022-11-28T04:36:35.051Z,45.33
2022-11-28T04:39:02.238Z,45.45
2022-11-28T04:41:34.689Z,45.33
2022-11-28T04:44:15.120Z,45.37
2022-11-28T04:46:47.324Z,45.27
2022-11-28T04:49:14.177Z,45.24
2022-11-28T04:51:54.977Z,45.29
2022-11-28T04:54:42.031Z,45.23
2022-11-28T04:57:19.391Z,45.19
2022-11-28T04:59:46.577Z,45.25
2022-11-28T05:02:13.682Z,45.33
2022-11-28T05:04:40.988Z,45.35
2022-11-28T05:07:08.684Z,45.21
2022-11-28T05:09:35.897Z,45.29
2022-11-28T05:12:03.054Z,45.19
2022-11-28T05:14:29.676Z,45.25
2022-11-28T05:16:56.216Z,45.20
2022-11-28T05:19:23.226Z,45.24
2022-11-28T05:21:49.819Z,45.24
2022-11-28T05:24:16.485Z,45.19
2022-11-28T05:26:43.444Z,45.20
2022-11-28T05:29:10.019Z,45.28
2022-11-28T05:31:37.513Z,45.40
2022-11-28T05:34:04.122Z,45.25
2022-11-28T05:36:30.719Z,45.13
2022-11-28T05:38:57.336Z,45.26
2022-11-28T05:41:31.775Z,45.32
2022-11-28T05:43:58.958Z,45.29
2022-11-28T05:46:26.097Z,45.33
2022-11-28T05:48:52.800Z,45.17
2022-11-28T05:51:19.901Z,45.16
2022-11-28T05:53:46.452Z,45.19
2022-11-28T05:56:16.474Z,45.21
2022-11-28T05:58:43.576Z,45.09
2022-11-28T06:01:17.202Z,45.19
2022-11-28T06:03:44.407Z,45.17
2022-11-28T06:06:20.852Z,45.35
2022-11-28T06:08:48.658Z,45.24
2022-11-28T06:11:15.957Z,45.19
2022-11-28T06:13:43.602Z,45.30
2022-11-28T06:16:12.078Z,45.20
2022-11-28T06:18:39.421Z,45.20
2022-11-28T06:21:07.596Z,45.22
2022-11-28T06:23:34.163Z,45.12
2022-11-28T06:26:06.454Z,45.20
2022-11-28T06:28:33.757Z,45.28
2022-11-28T06:31:00.373Z,45.21
2022-11-28T06:33:26.919Z,45.14
2022-11-28T06:35:59.827Z,45.03
2022-11-28T06:38:26.375Z,45.05
2022-11-28T06:40:56.715Z,45.09
2022-11-28T06:43:23.412Z,44.92
2022-11-28T06:45:49.965Z,45.02
2022-11-28T06:48:16.506Z,45.14
2022-11-28T06:50:43.032Z,45.05
2022-11-28T06:53:09.547Z,45.03
2022-11-28T06:55:36.223Z,44.99
2022-11-28T06:58:02.815Z,45.13
2022-11-28T07:00:29.377Z,45.07
2022-11-28T07:02:56.219Z,45.02
2022-11-28T07:05:22.952Z,44.97
2022-11-28T07:07:54.260Z,45.14
2022-11-28T07:10:21.762Z,45.10
2022-11-28T07:12:56.607Z,45.25
2022-11-28T07:15:23.592Z,45.07
2022-11-28T07:17:50.345Z,45.02
2022-11-28T07:20:17.638Z,45.01
2022-11-28T07:22:46.848Z,45.10
2022-11-28T07:25:14.870Z,45.28
2022-11-28T07:27:42.184Z,45.06
2022-11-28T07:30:10.104Z,45.06
2022-11-28T07:32:39.630Z,44.91
2022-11-28T07:35:08.329Z,45.08
2022-11-28T07:37:35.118Z,44.89
2022-11-28T07:40:01.772Z,45.08
2022-11-28T07:42:28.367Z,45.13
2022-11-28T07:44:54.938Z,45.00
2022-11-28T07:47:22.089Z,44.93
2022-11-28T07:49:48.603Z,45.08
2022-11-28T07:52:15.368Z,44.96
2022-11-28T07:54:42.133Z,44.96
2022-11-28T07:57:13.211Z,45.05
2022-11-28T07:59:40.325Z,45.03
2022-11-28T08:02:07.394Z,45.07
2022-11-28T08:04:34.179Z,44.86
2022-11-28T08:07:00.667Z,45.04
2022-11-28T08:09:27.206Z,44.89
2022-11-28T08:11:56.379Z,44.97
2022-11-28T08:14:23.254Z,44.98
2022-11-28T08:16:49.822Z,45.05
2022-11-28T08:19:16.590Z,44.98
2022-11-28T08:21:43.276Z,45.06
2022-11-28T08:24:11.114Z,44.92
2022-11-28T08:26:38.199Z,44.92
2022-11-28T08:29:04.782Z,44.91
2022-11-28T08:31:34.067Z,44.92
2022-11-28T08:34:02.278Z,44.95
2022-11-28T08:36:29.530Z,44.86
2022-11-28T08:39:16.663Z,44.91
2022-11-28T08:41:43.315Z,44.93
2022-11-28T08:44:09.946Z,45.01
2022-11-28T08:46:36.727Z,44.88
2022-11-28T08:49:04.734Z,44.88
2022-11-28T08:51:31.835Z,44.92
2022-11-28T08:53:59.846Z,44.94
2022-11-28T08:56:27.190Z,45.04
2022-11-28T08:58:54.467Z,45.02
2022-11-28T09:01:23.051Z,44.91
2022-11-28T09:03:49.939Z,44.99
2022-11-28T09:06:17.211Z,44.99
2022-11-28T09:08:44.453Z,44.88
2022-11-28T09:11:13.316Z,45.08
2022-11-28T09:13:40.174Z,44.80
2022-11-28T09:16:07.493Z,44.89
2022-11-28T09:18:34.147Z,44.76
2022-11-28T09:21:01.818Z,44.88
2022-11-28T09:23:29.225Z,44.68
2022-11-28T09:25:56.514Z,44.61
2022-11-28T09:28:23.944Z,44.75
2022-11-28T09:30:50.503Z,44.76
2022-11-28T09:33:17.030Z,44.64
2022-11-28T09:35:43.603Z,44.72
2022-11-28T09:38:10.069Z,44.71
2022-11-28T09:40:42.732Z,44.64
2022-11-28T09:43:38.640Z,44.61
2022-11-28T09:46:10.061Z,44.47
2022-11-28T09:48:43.406Z,44.59
2022-11-28T09:51:22.620Z,44.51
2022-11-28T09:54:27.737Z,44.42
2022-11-28T09:56:54.407Z,44.38
2022-11-28T09:59:25.861Z,44.49
2022-11-28T10:02:13.735Z,44.39
2022-11-28T10:04:51.635Z,44.41
2022-11-28T10:07:55.184Z,44.31
2022-11-28T10:10:35.295Z,44.31
2022-11-28T10:13:23.089Z,44.32
2022-11-28T10:16:15.730Z,44.23
2022-11-28T10:18:52.609Z,44.18
2022-11-28T10:21:35.677Z,44.09
2022-11-28T10:24:05.694Z,44.05
2022-11-28T10:26:41.764Z,44.03
2022-11-28T10:29:34.710Z,44.04
2022-11-28T10:32:03.962Z,44.07
2022-11-28T10:34:49.143Z,44.01
2022-11-28T10:37:24.996Z,43.84
2022-11-28T10:39:52.211Z,43.91
2022-11-28T10:42:23.648Z,43.74
2022-11-28T10:44:57.645Z,43.85
2022-11-28T10:47:39.683Z,43.84
2022-11-28T10:50:32.046Z,43.78
2022-11-28T10:53:02.387Z,43.80
2022-11-28T10:55:37.875Z,43.69
2022-11-28T10:58:14.930Z,43.69
2022-11-28T11:00:45.241Z,43.71
2022-11-28T11:03:14.110Z,43.70
2022-11-28T11:05:41.447Z,43.77
2022-11-28T11:08:10.758Z,43.73
2022-11-28T11:10:44.363Z,43.64
2022-11-28T11:13:23.696Z,43.54
2022-11-28T11:15:58.871Z,43.74
2022-11-28T11:18:29.531Z,43.66
2022-11-28T11:21:15.735Z,43.45
2022-11-28T11:23:42.747Z,43.49
2022-11-28T11:26:26.430Z,43.50
2022-11-28T11:28:53.298Z,43.35
2022-11-28T11:31:26.664Z,43.47
2022-11-28T11:34:02.872Z,43.12
2022-11-28T11:36:32.499Z,43.36
2022-11-28T11:39:11.392Z,43.40
2022-11-28T11:41:40.099Z,43.24
2022-11-28T11:44:15.840Z,43.04
2022-11-28T11:47:05.401Z,43.21
2022-11-28T11:49:39.329Z,43.48
2022-11-28T11:52:14.618Z,43.12
2022-11-28T11:54:47.166Z,43.14
2022-11-28T12:00:07.941Z,42.98
2022-11-28T12:02:46.886Z,43.02
2022-11-28T12:05:17.107Z,42.84
2022-11-28T12:07:46.672Z,42.98
2022-11-28T12:10:17.329Z,42.83
2022-11-28T12:12:43.812Z,42.79
2022-11-28T12:15:33.066Z,42.80
2022-11-28T12:18:15.733Z,42.84
2022-11-28T12:20:48.724Z,42.88
2022-11-28T12:23:17.579Z,42.81
2022-11-28T12:25:44.368Z,42.74
2022-11-28T12:28:23.121Z,42.62
2022-11-28T12:31:15.348Z,42.62
2022-11-28T12:33:45.004Z,42.73
2022-11-28T12:36:42.097Z,42.72
2022-11-28T12:39:18.622Z,42.63
2022-11-28T12:42:13.167Z,42.69
2022-11-28T12:44:55.093Z,42.70
2022-11-28T12:47:37.905Z,42.55
2022-11-28T12:50:15.179Z,42.47
2022-11-28T12:53:18.779Z,42.54
2022-11-28T12:56:03.655Z,42.41
2022-11-28T12:58:35.531Z,42.48
2022-11-28T13:01:13.517Z,42.59
2022-11-28T13:04:17.740Z,42.52
2022-11-28T13:07:02.607Z,42.49
2022-11-28T13:09:38.149Z,42.56
2022-11-28T13:12:28.513Z,42.43
2022-11-28T13:14:57.014Z,42.35
2022-11-28T13:17:48.451Z,42.33
2022-11-28T13:20:22.739Z,42.37
2022-11-28T13:22:55.028Z,42.28
2022-11-28T13:25:47.807Z,42.30
2022-11-28T13:28:36.291Z,42.13
2022-11-28T13:31:07.349Z,42.25
2022-11-28T13:33:56.332Z,42.16
2022-11-28T13:40:03.439Z,42.05
2022-11-28T13:45:39.142Z,42.08
2022-11-28T13:48:57.417Z,42.05
2022-11-28T13:51:30.975Z,42.03
2022-11-28T13:54:17.546Z,42.09
2022-11-28T13:57:05.485Z,42.02
2022-11-28T13:59:32.521Z,42.06
2022-11-28T14:02:05.798Z,41.96
2022-11-28T14:04:33.013Z,41.95
2022-11-28T14:07:02.893Z,41.92
2022-11-28T14:09:53.748Z,42.00
2022-11-28T14:12:29.865Z,41.96
2022-11-28T14:15:07.259Z,41.88
2022-11-28T14:17:45.853Z,41.94
2022-11-28T14:20:32.754Z,42.05
2022-11-28T14:23:05.425Z,41.99
2022-11-28T14:25:34.346Z,41.97
2022-11-28T14:28:06.274Z,42.15
2022-11-28T14:30:37.371Z,41.86
2022-11-28T14:33:21.279Z,41.87
2022-11-28T14:35:50.867Z,41.80
2022-11-28T14:38:33.766Z,41.78
2022-11-28T14:41:05.788Z,41.89
2022-11-28T14:43:48.212Z,41.91
2022-11-28T14:46:20.776Z,41.84
2022-11-28T14:48:59.681Z,41.79
2022-11-28T14:51:56.518Z,41.78
2022-11-28T14:54:37.833Z,41.95
2022-11-28T14:57:13.578Z,41.88
2022-11-28T14:59:40.174Z,41.84
2022-11-28T15:02:12.818Z,41.81
2022-11-28T15:04:57.869Z,41.96
2022-11-28T15:07:34.562Z,41.91
2022-11-28T15:10:09.941Z,41.59
2022-11-28T15:12:58.834Z,42.11
2022-11-28T15:15:25.509Z,41.90
2022-11-28T15:17:53.799Z,41.97
2022-11-28T15:20:28.457Z,42.04
2022-11-28T15:22:55.003Z,41.96
2022-11-28T15:25:35.346Z,41.88
2022-11-28T15:28:15.180Z,42.21
2022-11-28T15:30:47.312Z,41.89
2022-11-28T15:33:14.401Z,41.89
2022-11-28T15:35:55.367Z,41.83
2022-11-28T15:38:21.988Z,41.97
2022-11-28T15:40:52.958Z,41.91
2022-11-28T15:43:19.980Z,41.83
2022-11-28T15:45:50.774Z,41.83
2022-11-28T15:48:40.062Z,41.85
2022-11-28T15:51:08.551Z,41.80
2022-11-28T15:53:40.516Z,41.80
2022-11-28T15:56:07.701Z,41.90
2022-11-28T15:58:34.390Z,41.81
2022-11-28T16:01:13.010Z,41.73
2022-11-28T16:03:49.955Z,41.68
2022-11-28T16:06:18.002Z,41.59
2022-11-28T16:08:51.857Z,41.52
2022-11-28T16:11:20.086Z,41.79
2022-11-28T16:13:47.393Z,41.62
2022-11-28T16:16:19.771Z,41.58
2022-11-28T16:18:53.553Z,41.53
2022-11-28T16:21:26.647Z,41.66
2022-11-28T16:23:53.170Z,41.74
2022-11-28T16:26:30.001Z,41.65
2022-11-28T16:29:03.797Z,41.58
2022-11-28T16:31:30.756Z,41.69
2022-11-28T16:33:58.082Z,41.59
2022-11-28T16:36:36.388Z,41.68
2022-11-28T16:39:10.760Z,41.82
2022-11-28T16:41:43.080Z,41.55
2022-11-28T16:44:15.175Z,41.62
2022-11-28T16:46:55.355Z,41.68
2022-11-28T16:49:38.722Z,41.62
2022-11-28T16:52:26.223Z,41.57
2022-11-28T16:54:54.021Z,41.61
2022-11-28T16:57:20.902Z,41.54
2022-11-28T16:59:49.223Z,41.54
2022-11-28T17:02:20.468Z,41.61
2022-11-28T17:04:48.156Z,41.66
2022-11-28T17:07:17.172Z,41.73
2022-11-28T17:09:45.689Z,41.68
2022-11-28T17:12:30.224Z,41.71
2022-11-28T17:14:58.289Z,41.74
2022-11-28T17:17:25.280Z,41.75
2022-11-28T17:19:52.251Z,41.75
2022-11-28T17:22:24.120Z,41.77
2022-11-28T17:24:51.832Z,41.83
2022-11-28T17:27:18.481Z,41.82
2022-11-28T17:29:45.158Z,41.65
2022-11-28T17:32:13.524Z,41.76
2022-11-28T17:34:42.040Z,41.77
2022-11-28T17:37:09.389Z,41.80
2022-11-28T17:39:35.959Z,41.80
2022-11-28T17:42:02.627Z,41.83
2022-11-28T17:44:34.451Z,41.93
2022-11-28T17:47:02.225Z,41.76
2022-11-28T17:49:29.547Z,41.87
2022-11-28T17:51:56.724Z,41.88
2022-11-28T17:54:24.756Z,41.86
2022-11-28T17:56:52.631Z,41.85
2022-11-28T17:59:22.035Z,41.89
2022-11-28T18:01:48.757Z,41.85
2022-11-28T18:04:17.950Z,41.99
2022-11-28T18:06:45.794Z,41.97
2022-11-28T18:09:13.260Z,41.94
2022-11-28T18:11:41.004Z,41.99
2022-11-28T18:14:08.054Z,42.08
2022-11-28T18:16:36.400Z,42.06
2022-11-28T18:19:04.217Z,41.97
2022-11-28T18:21:31.357Z,42.11
2022-11-28T18:23:58.073Z,42.14
2022-11-28T18:26:26.065Z,42.10
2022-11-28T18:28:52.939Z,42.15
2022-11-28T18:31:25.304Z,42.12
2022-11-28T18:33:56.141Z,42.15
2022-11-28T18:36:27.306Z,42.16
2022-11-28T18:39:07.421Z,42.19
2022-11-28T18:41:34.047Z,42.09
2022-11-28T18:44:03.775Z,42.26
2022-11-28T18:46:31.008Z,42.32
2022-11-28T18:48:57.600Z,42.21
2022-11-28T18:51:28.941Z,42.25
2022-11-28T18:53:56.475Z,42.13
2022-11-28T18:56:23.675Z,42.35
2022-11-28T18:58:51.930Z,42.46
2022-11-28T19:01:19.652Z,42.45
2022-11-28T19:03:51.470Z,42.47
2022-11-28T19:06:18.493Z,42.55
2022-11-28T19:08:45.085Z,42.67
2022-11-28T19:11:14.570Z,42.56
2022-11-28T19:13:45.714Z,42.58
2022-11-28T19:16:32.862Z,42.75
2022-11-28T19:19:01.397Z,42.55
2022-11-28T19:21:31.500Z,42.70
2022-11-28T19:23:59.575Z,42.38
2022-11-28T19:26:28.973Z,42.35
2022-11-28T19:28:55.915Z,42.23
2022-11-28T19:31:26.999Z,42.29
2022-11-28T19:34:04.225Z,42.22
2022-11-28T19:36:32.895Z,42.11
2022-11-28T19:39:00.286Z,42.25
2022-11-28T19:41:27.999Z,42.34
2022-11-28T19:43:54.570Z,42.36
2022-11-28T19:46:21.358Z,42.21
2022-11-28T19:48:48.008Z,42.23
2022-11-28T19:51:15.839Z,42.26
2022-11-28T19:53:43.427Z,42.30
2022-11-28T19:56:17.122Z,42.29
2022-11-28T19:58:44.034Z,42.25
2022-11-28T20:01:16.090Z,42.37
2022-11-28T20:03:43.465Z,42.34
2022-11-28T20:06:12.407Z,42.29
2022-11-28T20:08:39.603Z,42.37
2022-11-28T20:11:08.528Z,42.39
2022-11-28T20:13:35.232Z,42.31
2022-11-28T20:16:03.795Z,42.39
2022-11-28T20:18:30.316Z,42.45
2022-11-28T20:21:06.684Z,42.35
2022-11-28T20:23:33.411Z,42.46
2022-11-28T20:26:06.249Z,42.36
2022-11-28T20:28:34.403Z,42.39
2022-11-28T20:31:01.463Z,42.45
2022-11-28T20:33:28.145Z,42.51
2022-11-28T20:36:04.907Z,42.20
2022-11-28T20:38:31.511Z,42.46
2022-11-28T20:41:02.793Z,42.35
2022-11-28T20:43:33.444Z,42.37
2022-11-28T20:46:04.941Z,42.54
2022-11-28T20:48:31.709Z,42.61
2022-11-28T20:50:58.814Z,42.70
2022-11-28T20:53:27.035Z,42.67
2022-11-28T20:56:01.823Z,42.98
2022-11-28T20:58:29.118Z,42.99
2022-11-28T21:00:56.403Z,43.23
2022-11-28T21:03:23.675Z,43.25
2022-11-28T21:05:50.491Z,43.25
2022-11-28T21:08:17.074Z,43.19
2022-11-28T21:10:43.860Z,43.04
2022-11-28T21:13:10.542Z,42.99
2022-11-28T21:15:47.584Z,43.05
2022-11-28T21:18:15.286Z,42.99
2022-11-28T21:20:45.440Z,42.84
2022-11-28T21:23:14.137Z,42.82
2022-11-28T21:25:41.915Z,42.96
2022-11-28T21:28:10.358Z,43.03
2022-11-28T21:30:45.882Z,43.07
2022-11-28T21:33:13.050Z,42.87
2022-11-28T21:35:40.065Z,43.10
2022-11-28T21:38:07.033Z,42.96
2022-11-28T21:40:33.781Z,42.87
2022-11-28T21:43:00.361Z,42.96
2022-11-28T21:45:27.298Z,43.16
2022-11-28T21:47:54.023Z,43.07
2022-11-28T21:50:20.719Z,43.08
2022-11-28T21:52:47.394Z,43.10
2022-11-28T21:55:13.942Z,43.06
2022-11-28T21:57:42.372Z,43.10
2022-11-28T22:00:25.608Z,43.07
2022-11-28T22:03:03.300Z,43.07
2022-11-28T22:05:31.478Z,43.11
2022-11-28T22:07:58.261Z,43.04
2022-11-28T22:10:24.865Z,43.13
2022-11-28T22:12:51.410Z,43.10
2022-11-28T22:15:18.293Z,43.15
2022-11-28T22:17:44.802Z,43.06
2022-11-28T22:20:11.822Z,43.05
2022-11-28T22:22:38.468Z,43.34
2022-11-28T22:25:05.474Z,43.26
2022-11-28T22:27:32.333Z,43.15
2022-11-28T22:29:59.000Z,43.42
2022-11-28T22:32:25.460Z,43.10
2022-11-28T22:34:51.987Z,43.11
2022-11-28T22:37:18.563Z,43.18
2022-11-28T22:39:45.028Z,43.14
2022-11-28T22:42:11.578Z,43.18
2022-11-28T22:44:38.103Z,42.97
2022-11-28T22:47:04.858Z,42.95
2022-11-28T22:49:31.438Z,42.98
2022-11-28T22:51:58.027Z,43.03
2022-11-28T22:54:24.495Z,42.85
2022-11-28T22:56:53.001Z,42.99
2022-11-28T22:59:19.576Z,42.98
2022-11-28T23:01:46.161Z,42.97
2022-11-28T23:04:12.937Z,42.83
2022-11-28T23:06:39.613Z,42.87
2022-11-28T23:09:07.865Z,42.85
2022-11-28T23:11:36.052Z,42.97
2022-11-28T23:14:03.195Z,42.95
2022-11-28T23:16:32.550Z,42.85
2022-11-28T23:19:01.043Z,42.91
2022-11-28T23:21:33.200Z,42.94
2022-11-28T23:23:59.691Z,42.88
2022-11-28T23:26:28.492Z,42.86
2022-11-28T23:28:55.637Z,42.92
2022-11-28T23:31:25.158Z,42.95
2022-11-28T23:33:52.865Z,42.95
2022-11-28T23:36:27.568Z,42.97
2022-11-28T23:38:56.008Z,42.88
2022-11-28T23:41:23.101Z,42.93
2022-11-28T23:43:50.081Z,42.92
2022-11-28T23:46:17.545Z,42.91
2022-11-28T23:48:44.981Z,42.77
2022-11-28T23:51:15.142Z,42.80
2022-11-28T23:53:42.376Z,42.70
2022-11-28T23:56:11.951Z,42.72
2022-11-28T23:58:39.301Z,42.85
